Details From YPPH - Perth
To YPLM - Learmonth
Flight Number -
Tags decoded
Created
Modified
Stats Distance 592 nm / 1,097 km
Max Altitude 0 ft / 0 m
Waypoints 4
Social Downloads 4
Likes 0
Share

Download

Looking for another format? Having issues loading an existing format? Contact us
Advertisement - Login to hide

Notes

Requested: YPPH PH H17 LM YPLM

Route

YPPH PH LM YPLM

ID Type Via Altitude (ft/m) Position (lat/lon) Dist (leg/tot) Name
O YPPH APT - 0 / 0 -31.93967 / 115.96661 - / 0 nm Perth
PH NDB - 0 / 0 -31.93750 / 115.95028 0 / 0 nm PERTH NDB
LM NDB - 0 / 0 -22.24139 / 114.09583 590 / 591 nm LEARMONTH NDB
O YPLM APT - 0 / 0 -22.23362 / 114.09006 0 / 592 nm Learmonth

Altitude Profile

Advertisement - Login to hide

Weather


0- 5 10 15 20 25 30 35+ Temperature / °C

Clouds and Precipitation
Forecast for 2020-10-19 12:00 UTC. Updated 6 hours ago

Ground ~20,000 ft ~40,000 ft Winds

YPPH

Details ICAO YPPH (PER)
Name Perth International
Region Australia
Timezone Australia/Perth (UTC+8.0)
Stats Elevation 67 ft / 20 m (AMSL)
Location -31.939800° 115.967000°
Runways 2
Magnetic Variation 1.698° W

METAR

YPPH 191500Z 21005KT CAVOK 18/14 Q1012 NOSIG

Decode

TAF

TAF YPPH 191114Z 1912/2018 20008KT CAVOK FM191700 17005KT 9999 SCT020 FM200000 14010KT 9999 SCT025 FM200400 23012KT CAVOK FM201000 19010KT CAVOK FM201600 13008KT CAVOK

Decode

Departure Runways

ID Width Length Bearing (true/mag) Surface Threshold Overrun Markings Lighting
03 148 ft / 45 m 11,307 ft / 3,446 m 13.88° / 15.58° ASPHALT 0 ft / 0 m 302 ft / 92 m PREC-APP CENTERLINE EDGE THRESHOLD CALVERT TDZ REIL-OMNI
06 148 ft / 45 m 7,100 ft / 2,164 m 58.88° / 60.58° ASPHALT 0 ft / 0 m 217 ft / 66 m PREC-APP CENTERLINE EDGE THRESHOLD CALVERT TDZ REIL-OMNI
21 148 ft / 45 m 11,307 ft / 3,446 m 193.88° / 195.57° ASPHALT 0 ft / 0 m 210 ft / 64 m PREC-APP CENTERLINE EDGE THRESHOLD CALVERT TDZ REIL-OMNI
24 148 ft / 45 m 7,100 ft / 2,164 m 238.87° / 240.57° ASPHALT 0 ft / 0 m 220 ft / 67 m PREC-APP CENTERLINE EDGE THRESHOLD CALVERT TDZ REIL-OMNI

YPLM

Details ICAO YPLM (LEA)
Name Learmonth
Region Australia
Timezone Australia/Perth (UTC+8.0)
Stats Elevation 19 ft / 6 m (AMSL)
Location -22.233600° 114.090000°
Runways 1
Magnetic Variation 0.194° E

METAR

YPLM 191500Z AUTO 21015KT 9999 // NCD 21/17 Q1013

Decode

TAF

TAF YPLM 191110Z 1912/2012 21012KT CAVOK FM200600 24018KT CAVOK

Decode

Destination Runways

ID Width Length Bearing (true/mag) Surface Threshold Overrun Markings Lighting
18 148 ft / 45 m 10,548 ft / 3,215 m 183.82° / 183.63° ASPHALT 180 ft / 55 m 0 ft / 0 m APP EDGE THRESHOLD CALVERT-ILS
36 148 ft / 45 m 10,548 ft / 3,215 m 3.82° / 3.63° ASPHALT 240 ft / 73 m 0 ft / 0 m APP EDGE THRESHOLD

Popular Alternatives